Time;durP1;ratioP1;P1;durP2;ratioP2;P2;SDS_P1;SDS_P2;PMS_P1;PMS_P2;Temp;Humidity;BMP_temperature;BMP_pressure;BME280_temperature;BME280_humidity;BME280_pressure;Samples;Min_cycle;Max_cycle;Signal;HPM_P1;HPM_P2
2023/05/12 00:00:27;;;;;;;;;16.50;14.75;;;;;15.18;42.35;98937.97;5983569;29;96879;-60
2023/05/12 00:03:31;;;;;;;;;11.60;11.60;;;;;15.13;42.33;98935.19;5983811;29;96287;-60
2023/05/12 00:06:34;;;;;;;;;13.00;12.60;;;;;15.05;42.69;98939.13;5976556;29;96693;-60
2023/05/12 00:09:37;;;;;;;;;16.60;14.60;;;;;15.01;42.71;98937.16;6001965;29;96297;-60
2023/05/12 00:12:43;;;;;;;;;12.60;11.00;;;;;15.05;42.54;98928.25;6000972;29;96335;-60
2023/05/12 00:15:46;;;;;;;;;15.00;15.00;;;;;14.98;42.94;98933.06;5994069;29;96680;-60
2023/05/12 00:18:50;;;;;;;;;13.00;11.60;;;;;15.01;42.55;98939.88;5994129;29;96306;-61
2023/05/12 00:21:54;;;;;;;;;11.00;9.60;;;;;14.89;43.08;98939.16;6001860;29;96932;-60
2023/05/12 00:24:57;;;;;;;;;14.00;13.40;;;;;14.77;43.20;98947.38;6000911;29;96362;-60
2023/05/12 00:28:02;;;;;;;;;13.00;12.00;;;;;14.70;43.17;98939.44;5980112;29;97000;-60
2023/05/12 00:31:05;;;;;;;;;13.20;11.80;;;;;14.65;43.53;98936.63;5979262;29;97872;-59
2023/05/12 00:34:09;;;;;;;;;15.00;15.00;;;;;14.71;43.38;98943.75;5961929;29;96337;-59
2023/05/12 00:37:13;;;;;;;;;10.60;10.60;;;;;14.66;43.57;98942.88;5961763;29;96234;-60
2023/05/12 00:40:17;;;;;;;;;13.60;12.60;;;;;14.62;43.61;98936.28;5968587;29;96143;-60
2023/05/12 00:43:22;;;;;;;;;11.40;10.20;;;;;14.60;43.89;98943.88;5987844;29;96407;-59
2023/05/12 00:46:27;;;;;;;;;12.40;12.00;;;;;14.42;44.25;98936.75;5985604;29;96388;-60
2023/05/12 00:49:31;;;;;;;;;14.50;12.50;;;;;14.49;43.91;98937.44;5965562;29;96199;-60
2023/05/12 00:52:35;;;;;;;;;9.20;9.00;;;;;14.30;44.46;98950.38;5948251;29;96295;-60
2023/05/12 00:55:38;;;;;;;;;13.40;13.40;;;;;14.37;43.98;98952.16;5974451;29;97446;-60
2023/05/12 00:58:44;;;;;;;;;14.00;12.00;;;;;14.35;44.45;98955.06;5965366;29;96263;-60
2023/05/12 01:01:49;;;;;;;;;13.00;12.00;;;;;14.35;44.03;98943.41;5962956;29;96326;-59
2023/05/12 01:04:53;;;;;;;;;11.00;10.40;;;;;14.39;44.02;98955.44;5983136;29;97214;-59
2023/05/12 01:07:57;;;;;;;;;14.00;13.25;;;;;14.42;43.72;98958.47;5964767;29;96287;-60
2023/05/12 01:11:01;;;;;;;;;11.00;10.40;;;;;14.35;44.21;98955.06;5964394;29;96345;-59
2023/05/12 01:14:05;;;;;;;;;13.00;12.00;;;;;13.95;44.25;98910.94;5969627;29;96980;-60
2023/05/12 01:17:12;;;;;;;;;14.00;13.40;;;;;14.12;44.71;98963.31;5960551;29;96566;-59
2023/05/12 01:20:18;;;;;;;;;13.00;12.00;;;;;13.97;45.27;98963.84;5944561;29;96902;-59
2023/05/12 01:23:33;;;;;;;;;12.75;12.75;;;;;14.01;44.87;98964.19;5944859;29;96274;-59
2023/05/12 01:26:38;;;;;;;;;12.00;11.00;;;;;13.90;45.48;98974.00;5963186;29;96407;-59
2023/05/12 01:29:43;;;;;;;;;11.00;11.00;;;;;13.91;45.06;98977.53;5982148;29;96427;-60
2023/05/12 01:32:47;;;;;;;;;14.00;12.40;;;;;13.92;45.08;98968.34;5966620;29;96458;-60
2023/05/12 01:35:52;;;;;;;;;14.80;14.80;;;;;13.85;45.35;98971.19;5984289;29;96228;-60
2023/05/12 01:38:56;;;;;;;;;13.00;12.00;;;;;13.84;45.37;98977.66;5983759;29;96278;-59
2023/05/12 01:42:01;;;;;;;;;10.50;10.00;;;;;13.65;46.09;98974.31;5984699;29;96296;-59
2023/05/12 01:45:05;;;;;;;;;11.80;11.80;;;;;13.62;46.02;98977.50;5984434;29;96341;-59
2023/05/12 01:48:09;;;;;;;;;17.00;15.40;;;;;13.66;45.81;98967.00;5984346;29;96912;-61
2023/05/12 01:51:12;;;;;;;;;12.00;12.00;;;;;13.63;45.52;98979.16;5944985;29;96444;-60
2023/05/12 01:54:16;;;;;;;;;15.80;14.00;;;;;13.57;46.23;98974.69;5960051;29;96937;-60
2023/05/12 01:57:20;;;;;;;;;14.80;14.00;;;;;13.63;45.90;98971.03;5962392;29;96336;-60
2023/05/12 02:00:26;;;;;;;;;11.60;11.40;;;;;13.59;45.92;98969.00;5973293;29;96559;-60
2023/05/12 02:03:31;;;;;;;;;17.00;16.00;;;;;13.52;46.13;98962.94;5986105;29;96952;-59
2023/05/12 02:06:35;;;;;;;;;15.00;14.00;;;;;13.53;46.25;98972.69;5986422;29;96400;-60
2023/05/12 02:09:38;;;;;;;;;14.00;13.00;;;;;13.46;46.27;98970.13;5968074;29;96318;-60
2023/05/12 02:12:43;;;;;;;;;13.75;12.75;;;;;13.40;46.35;98976.47;5965584;29;96275;-60
2023/05/12 02:15:46;;;;;;;;;14.00;12.00;;;;;13.31;46.76;98969.78;5980649;29;96507;-59
2023/05/12 02:18:50;;;;;;;;;12.00;12.00;;;;;13.28;46.72;98965.69;5966672;29;96397;-59
2023/05/12 02:21:53;;;;;;;;;11.80;11.00;;;;;13.28;46.78;98965.69;5982724;29;96311;-59
2023/05/12 02:24:56;;;;;;;;;14.40;12.00;;;;;13.22;47.01;98972.03;5983467;29;96269;-60
2023/05/12 02:28:01;;;;;;;;;14.00;13.00;;;;;13.27;46.51;98971.31;5982074;29;96339;-60
2023/05/12 02:31:05;;;;;;;;;12.75;12.75;;;;;13.23;46.85;98970.97;5976390;29;96899;-60
2023/05/12 02:34:08;;;;;;;;;11.20;11.20;;;;;13.09;47.25;98972.25;5985271;29;96325;-60
2023/05/12 02:37:11;;;;;;;;;10.00;9.80;;;;;13.14;46.78;98977.00;5983589;29;96698;-60
2023/05/12 02:40:16;;;;;;;;;14.00;12.00;;;;;13.08;46.98;98973.31;5968399;29;96310;-60
2023/05/12 02:43:21;;;;;;;;;13.60;12.00;;;;;13.07;47.15;98981.66;5984507;29;96522;-60
2023/05/12 02:46:24;;;;;;;;;12.00;12.00;;;;;13.06;47.16;98971.88;5982984;29;96239;-60
2023/05/12 02:49:31;;;;;;;;;12.60;12.00;;;;;12.95;47.52;98976.25;5984335;29;96327;-60
2023/05/12 02:52:34;;;;;;;;;11.20;11.00;;;;;13.00;47.20;98979.03;5984478;29;96118;-59
2023/05/12 02:55:38;;;;;;;;;12.20;12.20;;;;;13.01;47.24;98978.00;5953260;29;97306;-60
2023/05/12 02:58:42;;;;;;;;;16.00;15.00;;;;;13.07;47.12;98974.34;5983357;29;96307;-60
2023/05/12 03:01:46;;;;;;;;;15.60;14.00;;;;;13.02;47.12;98969.66;5991932;29;96268;-60
2023/05/12 03:04:50;;;;;;;;;11.00;10.00;;;;;12.92;47.76;98979.41;5944846;29;96612;-61
2023/05/12 03:07:53;;;;;;;;;12.00;11.00;;;;;12.85;47.21;98965.19;5970517;29;96560;-61
2023/05/12 03:10:57;;;;;;;;;11.75;11.25;;;;;12.95;47.54;98971.63;5972062;29;96407;-61
2023/05/12 03:14:02;;;;;;;;;15.00;14.50;;;;;12.93;47.83;98967.53;5963917;29;96785;-62
2023/05/12 03:17:05;;;;;;;;;11.00;11.00;;;;;13.03;47.40;98974.00;5971163;29;96271;-62
2023/05/12 03:20:11;;;;;;;;;13.00;12.00;;;;;12.96;47.42;98980.56;5970695;29;96528;-61
2023/05/12 03:23:14;;;;;;;;;11.80;10.20;;;;;12.98;47.60;98975.78;5970652;29;96481;-62
2023/05/12 03:26:18;;;;;;;;;15.25;14.00;;;;;13.03;47.28;98978.59;5952367;29;96344;-61
2023/05/12 03:29:23;;;;;;;;;10.60;9.60;;;;;12.96;47.73;98970.59;5945883;29;96571;-61
2023/05/12 03:32:26;;;;;;;;;13.60;12.00;;;;;12.99;47.61;98975.53;5963353;29;97245;-62
2023/05/12 03:35:30;;;;;;;;;13.40;13.00;;;;;12.95;47.96;98979.75;5962354;29;97291;-61
2023/05/12 03:38:36;;;;;;;;;11.20;11.20;;;;;13.03;47.29;98975.88;5932686;29;97073;-62
2023/05/12 03:41:40;;;;;;;;;14.00;13.00;;;;;13.05;47.65;98983.78;5955208;29;96540;-61
2023/05/12 03:44:45;;;;;;;;;12.00;11.00;;;;;13.02;47.82;98983.19;5966752;29;96579;-62
2023/05/12 03:47:48;;;;;;;;;13.40;12.00;;;;;13.07;47.24;98987.06;5953018;29;96562;-62
2023/05/12 03:50:52;;;;;;;;;14.40;14.00;;;;;13.06;47.42;98986.22;5969872;29;97320;-62
2023/05/12 03:53:56;;;;;;;;;11.00;11.00;;;;;12.99;48.25;98980.97;5968800;29;96616;-61
2023/05/12 03:57:00;;;;;;;;;12.60;12.00;;;;;13.09;47.70;98984.97;5964448;29;96775;-62
2023/05/12 04:00:07;;;;;;;;;11.00;10.60;;;;;13.11;47.44;98986.38;5960239;29;96583;-61
2023/05/12 04:03:19;;;;;;;;;12.00;12.00;;;;;13.12;47.44;98990.75;5947663;29;96877;-61
2023/05/12 04:06:23;;;;;;;;;11.80;11.00;;;;;13.16;47.57;98993.81;5962002;29;97166;-61
2023/05/12 04:09:26;;;;;;;;;13.00;13.00;;;;;13.21;47.42;98994.75;5952038;29;96728;-61
2023/05/12 04:12:30;;;;;;;;;12.50;11.50;;;;;13.27;47.18;98992.97;5969407;29;96759;-61
2023/05/12 04:15:35;;;;;;;;;12.25;12.25;;;;;13.19;47.41;98996.88;5973376;29;96800;-61
2023/05/12 04:18:39;;;;;;;;;12.60;11.00;;;;;13.28;47.46;99000.88;5966916;29;96326;-62
2023/05/12 04:21:43;;;;;;;;;14.00;13.00;;;;;13.39;47.38;98999.19;5967716;29;96942;-61
2023/05/12 04:24:46;;;;;;;;;14.00;13.00;;;;;13.45;47.04;99001.78;5971247;29;96323;-61
2023/05/12 04:27:49;;;;;;;;;13.00;13.00;;;;;13.53;47.01;98992.50;5954397;29;96695;-61
2023/05/12 04:30:54;;;;;;;;;12.00;11.00;;;;;13.59;47.05;98996.94;5969008;29;96414;-61
2023/05/12 04:33:59;;;;;;;;;11.50;10.00;;;;;13.64;46.80;99005.16;5968236;29;97444;-62
2023/05/12 04:37:03;;;;;;;;;15.00;13.40;;;;;13.67;46.62;99002.00;5959197;29;97941;-61
2023/05/12 04:40:09;;;;;;;;;10.50;10.50;;;;;13.78;46.68;98998.41;5984868;29;96407;-61
2023/05/12 04:43:12;;;;;;;;;10.60;9.60;;;;;13.81;46.42;99011.50;5958419;29;96595;-62
2023/05/12 04:46:20;;;;;;;;;13.00;12.00;;;;;13.71;46.77;99007.75;5975123;29;96623;-62
2023/05/12 04:49:24;;;;;;;;;13.75;11.00;;;;;13.75;46.77;99004.31;5970580;29;96791;-62
2023/05/12 04:52:27;;;;;;;;;13.00;12.00;;;;;13.84;46.87;99010.19;5996869;29;96348;-61
2023/05/12 04:55:31;;;;;;;;;11.67;10.67;;;;;13.94;46.48;99015.81;5971045;29;97122;-61
2023/05/12 04:58:34;;;;;;;;;12.60;11.60;;;;;14.07;46.50;99018.28;5967282;29;96242;-61
2023/05/12 05:01:40;;;;;;;;;12.00;11.60;;;;;14.11;46.39;99016.72;5969035;29;96748;-61
2023/05/12 05:04:44;;;;;;;;;12.25;12.00;;;;;14.09;46.40;99024.25;5958190;29;96896;-61
2023/05/12 05:07:48;;;;;;;;;13.00;12.00;;;;;14.14;46.57;99028.97;5994125;29;97629;-61
2023/05/12 05:10:52;;;;;;;;;10.60;9.60;;;;;14.42;46.06;99017.31;5969210;29;96814;-61
2023/05/12 05:13:56;;;;;;;;;14.25;12.25;;;;;14.60;46.06;99026.09;5982480;29;98277;-61
2023/05/12 05:17:01;;;;;;;;;15.00;14.00;;;;;14.60;45.85;99025.25;5972769;29;96909;-61
2023/05/12 05:20:06;;;;;;;;;13.00;12.60;;;;;14.69;45.45;99021.06;5974124;29;98055;-61
2023/05/12 05:23:14;;;;;;;;;11.00;11.00;;;;;14.85;45.23;99024.88;5973771;29;97493;-61
2023/05/12 05:26:18;;;;;;;;;12.40;12.00;;;;;14.84;45.44;99031.38;5971750;29;96831;-62
2023/05/12 05:29:22;;;;;;;;;12.00;12.00;;;;;15.01;45.39;99030.31;5970287;29;96810;-61
2023/05/12 05:32:27;;;;;;;;;12.00;12.00;;;;;15.06;45.54;99027.66;5965145;29;96684;-61
2023/05/12 05:35:31;;;;;;;;;12.80;12.80;;;;;15.30;45.24;99032.91;5958158;29;96939;-61
2023/05/12 05:38:35;;;;;;;;;10.40;10.00;;;;;15.43;44.74;99040.75;5971903;29;96902;-61
2023/05/12 05:41:38;;;;;;;;;12.40;12.00;;;;;15.45;44.59;99046.72;5974483;29;96860;-62
2023/05/12 05:44:42;;;;;;;;;11.00;10.00;;;;;15.24;45.38;99045.63;5974460;29;96283;-62
2023/05/12 05:47:48;;;;;;;;;13.00;13.00;;;;;15.43;45.38;99051.59;5972790;29;96806;-62
2023/05/12 05:50:53;;;;;;;;;12.00;11.00;;;;;15.55;44.93;99055.88;5973694;29;96920;-62
2023/05/12 05:53:58;;;;;;;;;10.00;10.00;;;;;15.63;45.27;99056.56;5973761;29;96326;-62
2023/05/12 05:57:02;;;;;;;;;12.00;9.00;;;;;15.48;45.75;99052.50;5973776;29;96325;-62
2023/05/12 06:00:08;;;;;;;;;12.00;11.60;;;;;15.57;45.68;99056.47;5958283;29;96695;-62
2023/05/12 06:03:26;;;;;;;;;11.00;10.80;;;;;15.61;45.90;99059.50;5958368;29;96451;-62
2023/05/12 06:06:30;;;;;;;;;10.60;10.60;;;;;15.80;45.67;99063.56;5968689;29;96405;-62
2023/05/12 06:09:35;;;;;;;;;10.00;10.00;;;;;15.76;45.36;99054.28;5954593;29;97548;-62
2023/05/12 06:12:39;;;;;;;;;12.00;10.00;;;;;15.81;45.20;99054.34;5973777;29;96914;-62
2023/05/12 06:15:43;;;;;;;;;11.60;11.00;;;;;15.87;45.32;99055.25;5974384;29;97634;-62
2023/05/12 06:18:48;;;;;;;;;12.00;11.00;;;;;15.90;45.18;99055.56;5972425;29;96568;-62
2023/05/12 06:21:52;;;;;;;;;10.00;10.00;;;;;15.87;45.24;99055.25;5974347;29;96316;-62
2023/05/12 06:24:55;;;;;;;;;11.33;10.33;;;;;16.00;45.40;99054.88;5974337;29;96358;-62
2023/05/12 06:27:58;;;;;;;;;10.80;9.20;;;;;16.21;45.45;99051.34;5974363;29;96388;-62
2023/05/12 06:31:03;;;;;;;;;11.00;10.00;;;;;16.45;45.14;99058.13;5966999;29;96368;-62
2023/05/12 06:34:08;;;;;;;;;14.00;12.75;;;;;16.67;44.43;99054.56;5974454;29;97377;-62
2023/05/12 06:37:11;;;;;;;;;10.00;9.50;;;;;16.82;44.13;99062.88;5973250;29;96304;-62
2023/05/12 06:40:15;;;;;;;;;8.25;7.25;;;;;16.96;43.91;99058.66;5974116;29;96494;-62
2023/05/12 06:43:18;;;;;;;;;11.75;9.25;;;;;17.12;43.59;99052.28;5974259;29;96464;-62
2023/05/12 06:46:22;;;;;;;;;8.50;8.00;;;;;17.36;43.70;99049.16;5973917;29;96428;-62
2023/05/12 06:49:26;;;;;;;;;10.00;9.00;;;;;17.55;43.16;99050.41;5973773;29;97124;-62
2023/05/12 06:52:30;;;;;;;;;9.00;9.00;;;;;17.86;42.66;99052.25;5973992;29;96305;-62
2023/05/12 06:55:34;;;;;;;;;12.00;11.00;;;;;18.09;41.87;99062.72;5973816;29;96469;-62
2023/05/12 06:58:37;;;;;;;;;9.40;9.40;;;;;18.51;41.54;99059.91;5973831;29;96533;-62
2023/05/12 07:01:41;;;;;;;;;11.00;10.40;;;;;18.89;40.73;99052.34;5956734;29;98422;-62
2023/05/12 07:04:46;;;;;;;;;10.50;10.00;;;;;19.13;40.70;99058.09;5954644;29;97105;-62
2023/05/12 07:07:49;;;;;;;;;10.80;10.00;;;;;19.05;39.46;99054.00;5972197;29;96438;-62
2023/05/12 07:10:53;;;;;;;;;9.00;9.00;;;;;19.51;39.47;99048.53;5973815;29;96253;-62
2023/05/12 07:13:56;;;;;;;;;10.00;9.00;;;;;19.93;39.08;99045.44;5973467;29;96478;-62
2023/05/12 07:17:00;;;;;;;;;8.00;8.00;;;;;20.38;38.35;99058.94;5972819;29;96469;-62
2023/05/12 07:20:05;;;;;;;;;8.00;7.40;;;;;20.81;37.63;99057.34;5973867;29;96715;-62
2023/05/12 07:23:09;;;;;;;;;9.00;8.00;;;;;21.22;35.77;99049.66;5966476;29;96684;-62
2023/05/12 07:26:12;;;;;;;;;9.20;8.20;;;;;21.69;36.30;99059.94;5972306;29;96988;-62
2023/05/12 07:29:16;;;;;;;;;10.00;8.00;;;;;21.77;34.88;99053.81;5972956;29;96622;-62
2023/05/12 07:32:19;;;;;;;;;8.00;7.50;;;;;22.19;34.85;99055.00;5973205;29;96413;-62
2023/05/12 07:35:24;;;;;;;;;9.00;8.60;;;;;22.49;34.65;99060.09;5973488;29;96337;-62
2023/05/12 07:38:27;;;;;;;;;9.00;8.40;;;;;22.80;34.15;99061.34;5972526;29;96583;-62
2023/05/12 07:41:31;;;;;;;;;7.00;7.00;;;;;22.80;32.08;99041.28;5973538;29;96535;-62
2023/05/12 07:44:36;;;;;;;;;8.50;7.50;;;;;23.13;32.89;99047.63;5973590;29;96352;-62
2023/05/12 07:47:40;;;;;;;;;10.40;8.60;;;;;23.15;31.68;99057.25;5975701;29;96822;-62
2023/05/12 07:50:44;;;;;;;;;6.00;6.00;;;;;23.10;31.01;99057.31;5977468;29;96392;-62
2023/05/12 07:53:48;;;;;;;;;8.00;7.50;;;;;23.08;30.67;99059.53;5977081;29;96594;-62
2023/05/12 07:56:51;;;;;;;;;9.00;8.50;;;;;23.32;31.27;99042.91;5976749;29;96455;-62
2023/05/12 07:59:54;;;;;;;;;6.00;6.00;;;;;23.42;31.15;99055.69;5977064;29;97533;-62
2023/05/12 08:02:58;;;;;;;;;6.60;6.60;;;;;23.58;31.17;99048.81;5977436;29;97224;-62
2023/05/12 08:06:05;;;;;;;;;7.00;6.00;;;;;23.92;30.86;99056.72;5968420;29;96670;-62
2023/05/12 08:09:08;;;;;;;;;7.00;6.00;;;;;24.02;30.09;99048.28;5977545;29;96508;-62
2023/05/12 08:12:11;;;;;;;;;6.60;6.20;;;;;24.04;29.87;99055.09;5976246;29;96545;-62
2023/05/12 08:15:15;;;;;;;;;5.00;5.00;;;;;24.02;29.80;99053.78;5976669;29;96969;-62
2023/05/12 08:18:18;;;;;;;;;6.00;5.00;;;;;23.62;29.30;99049.84;5976102;29;96607;-62
2023/05/12 08:21:23;;;;;;;;;8.40;8.00;;;;;23.84;30.28;99043.69;5977233;29;96294;-62
2023/05/12 08:24:26;;;;;;;;;5.80;5.00;;;;;24.09;29.75;99049.47;5959880;29;97887;-62
2023/05/12 08:27:29;;;;;;;;;7.00;6.60;;;;;24.32;28.75;99055.13;5976785;29;96387;-62
2023/05/12 08:30:32;;;;;;;;;5.60;5.60;;;;;24.47;29.35;99052.06;5975116;29;96545;-63
2023/05/12 08:33:39;;;;;;;;;5.00;5.00;;;;;24.34;28.33;99055.63;5982362;29;96514;-62
2023/05/12 08:36:44;;;;;;;;;4.25;4.25;;;;;24.50;28.18;99052.25;5999956;29;96721;-62
2023/05/12 08:39:47;;;;;;;;;5.00;5.00;;;;;24.35;27.99;99058.06;5999649;29;96536;-62
2023/05/12 08:42:55;;;;;;;;;5.20;5.00;;;;;24.29;27.79;99050.25;6000023;29;96428;-62
2023/05/12 08:46:01;;;;;;;;;5.80;5.80;;;;;24.43;29.31;99057.38;5992071;29;97020;-62
2023/05/12 08:49:06;;;;;;;;;5.00;4.00;;;;;24.42;28.25;99047.47;5999542;29;96486;-62
2023/05/12 08:52:17;;;;;;;;;4.00;4.00;;;;;24.84;29.11;99060.03;5999541;29;97320;-62
2023/05/12 08:55:21;;;;;;;;;7.00;6.00;;;;;25.26;27.67;99055.22;5982791;29;97331;-62
2023/05/12 08:58:31;;;;;;;;;4.00;4.00;;;;;25.77;26.99;99054.72;5999099;29;96391;-62
2023/05/12 09:01:46;;;;;;;;;6.33;6.33;;;;;25.85;25.77;99060.28;5999596;29;96282;-62
2023/05/12 09:04:50;;;;;;;;;6.00;4.60;;;;;25.97;25.64;99064.41;5983004;29;96518;-62
2023/05/12 09:07:55;;;;;;;;;4.60;4.60;;;;;25.91;25.50;99057.38;5999331;29;96386;-62
2023/05/12 09:10:58;;;;;;;;;3.40;3.00;;;;;25.68;24.44;99056.63;5978413;29;96498;-62
2023/05/12 09:14:05;;;;;;;;;5.00;5.00;;;;;25.02;24.73;99059.06;5968187;29;97029;-62
2023/05/12 09:17:08;;;;;;;;;5.00;5.00;;;;;25.86;25.54;99058.34;5975631;29;96487;-62
2023/05/12 09:20:13;;;;;;;;;4.60;3.60;;;;;26.27;24.06;99058.88;5975220;29;96308;-62
2023/05/12 09:23:34;;;;;;;;;4.80;4.80;;;;;26.48;23.86;99050.81;5972130;29;96467;-62
2023/05/12 09:26:46;;;;;;;;;5.00;5.00;;;;;26.68;23.26;99052.13;5975777;29;97128;-62
2023/05/12 09:29:50;;;;;;;;;4.40;4.40;;;;;26.49;22.92;99057.94;5974714;29;96354;-62
2023/05/12 09:33:08;;;;;;;;;4.00;4.00;;;;;26.24;23.04;99055.94;5974835;29;97523;-62
2023/05/12 09:36:16;;;;;;;;;4.20;4.20;;;;;26.42;24.13;99040.22;5975426;29;96816;-62
2023/05/12 09:39:21;;;;;;;;;3.75;3.75;;;;;27.04;22.14;99043.53;5959031;29;97625;-62
2023/05/12 09:42:28;;;;;;;;;3.40;3.40;;;;;26.52;20.42;99046.25;5975493;29;97457;-62
2023/05/12 09:45:35;;;;;;;;;4.60;4.60;;;;;26.36;21.14;99061.66;5975915;29;96427;-62
2023/05/12 09:48:38;;;;;;;;;4.60;3.60;;;;;25.90;21.67;99053.84;5975582;29;96629;-62
2023/05/12 09:51:42;;;;;;;;;5.00;4.40;;;;;25.68;22.79;99051.94;5974333;29;96317;-62
2023/05/12 09:54:47;;;;;;;;;4.00;4.00;;;;;25.99;23.50;99048.34;5975344;29;97052;-62
2023/05/12 09:57:52;;;;;;;;;4.00;4.00;;;;;26.14;23.05;99047.91;5975264;29;96205;-62
2023/05/12 10:00:56;;;;;;;;;4.00;4.00;;;;;26.09;22.81;99045.28;5975449;29;96434;-62
2023/05/12 10:04:20;;;;;;;;;4.00;4.00;;;;;25.66;22.75;99047.84;5975473;29;97558;-62
2023/05/12 10:07:27;;;;;;;;;6.00;6.00;;;;;25.30;23.85;99037.72;5975204;29;97010;-62
2023/05/12 10:10:33;;;;;;;;;5.00;3.80;;;;;25.27;23.96;99038.31;5972238;29;97231;-62
2023/05/12 10:13:38;;;;;;;;;5.00;5.00;;;;;25.58;24.32;99043.91;5973970;29;96641;-62
2023/05/12 10:16:41;;;;;;;;;4.00;4.00;;;;;25.87;23.03;99033.16;5973715;29;96908;-62
2023/05/12 10:19:46;;;;;;;;;5.00;4.00;;;;;26.23;23.50;99033.00;5973856;29;96902;-62
2023/05/12 10:22:51;;;;;;;;;4.00;4.00;;;;;25.82;21.61;99041.59;5973504;29;97243;-62
2023/05/12 10:26:00;;;;;;;;;4.75;4.75;;;;;25.21;22.14;99045.13;5974020;29;96762;-62
2023/05/12 10:29:04;;;;;;;;;3.60;3.60;;;;;25.27;22.23;99043.03;5973399;29;96941;-62
2023/05/12 10:32:08;;;;;;;;;4.80;4.80;;;;;25.41;22.29;99030.78;5970269;29;96858;-62
2023/05/12 10:35:13;;;;;;;;;4.20;4.20;;;;;25.43;22.17;99033.22;5956330;29;98534;-62
2023/05/12 10:38:18;;;;;;;;;5.80;4.00;;;;;25.67;23.37;99021.84;5973143;29;96595;-62
2023/05/12 10:41:41;;;;;;;;;4.00;4.00;;;;;25.34;21.79;99029.59;5973394;29;96346;-62
2023/05/12 10:44:51;;;;;;;;;4.00;4.00;;;;;25.78;22.55;99043.38;5973306;29;96645;-62
2023/05/12 10:48:05;;;;;;;;;5.00;5.00;;;;;25.85;21.84;99027.13;5971927;29;97315;-62
2023/05/12 10:51:10;;;;;;;;;4.00;4.00;;;;;26.40;22.43;99028.66;5974249;29;96478;-62
2023/05/12 10:54:20;;;;;;;;;3.00;3.00;;;;;26.42;21.64;99023.63;5973064;29;96580;-62
2023/05/12 10:57:25;;;;;;;;;5.00;5.00;;;;;26.37;21.99;99026.53;5973711;29;97518;-62
2023/05/12 11:00:29;;;;;;;;;5.00;5.00;;;;;25.94;21.92;99029.16;5972980;29;98102;-62
2023/05/12 11:03:34;;;;;;;;;5.40;5.00;;;;;25.95;21.26;99033.53;5993262;29;96971;-62
2023/05/12 11:06:38;;;;;;;;;4.00;3.75;;;;;26.22;21.08;99036.09;5994611;29;96546;-62
2023/05/12 11:09:45;;;;;;;;;4.75;4.75;;;;;26.28;20.50;99032.88;5993998;29;96566;-62
2023/05/12 11:13:02;;;;;;;;;6.00;6.00;;;;;26.25;20.62;99035.44;5996195;29;97530;-62
2023/05/12 11:16:06;;;;;;;;;5.00;4.00;;;;;26.17;20.88;99023.19;5984230;29;96499;-62
2023/05/12 11:19:09;;;;;;;;;3.80;3.40;;;;;26.09;21.20;99025.94;5996423;29;96493;-62
2023/05/12 11:22:13;;;;;;;;;5.00;5.00;;;;;25.84;21.87;99021.94;5993789;29;96452;-62
2023/05/12 11:25:17;;;;;;;;;4.00;4.00;;;;;26.12;22.93;99025.28;5996524;29;96589;-62
2023/05/12 11:28:22;;;;;;;;;3.80;3.80;;;;;25.54;22.51;99017.22;5979187;29;98532;-62
2023/05/12 11:31:26;;;;;;;;;5.40;5.40;;;;;25.42;22.49;99034.34;5996287;29;96988;-62
2023/05/12 11:34:29;;;;;;;;;4.80;4.20;;;;;25.83;22.32;99032.19;5996156;29;96531;-62
2023/05/12 11:37:36;;;;;;;;;4.40;4.00;;;;;26.50;23.14;99026.41;5995833;29;96413;-62
2023/05/12 11:40:40;;;;;;;;;3.80;3.80;;;;;26.62;21.04;99031.31;5975707;29;97224;-62
2023/05/12 11:43:45;;;;;;;;;5.00;4.00;;;;;26.67;21.13;99033.91;5994548;29;96422;-62
2023/05/12 11:46:59;;;;;;;;;5.00;5.00;;;;;26.37;23.37;99027.34;5979023;29;98586;-62
2023/05/12 11:50:04;;;;;;;;;5.20;5.00;;;;;26.11;23.81;99024.47;5996205;29;96921;-62
2023/05/12 11:53:11;;;;;;;;;5.40;5.00;;;;;25.69;23.49;99037.00;5995521;29;96664;-62
2023/05/12 11:56:19;;;;;;;;;6.00;5.20;;;;;25.77;23.13;99035.38;5996252;29;96381;-62
2023/05/12 11:59:28;;;;;;;;;4.00;4.00;;;;;26.10;21.94;99035.84;5995819;29;96657;-62
2023/05/12 12:02:32;;;;;;;;;5.40;5.00;;;;;26.37;21.59;99032.88;5980971;29;96465;-60
2023/05/12 12:05:36;;;;;;;;;5.75;5.75;;;;;26.19;21.65;99036.72;5971937;29;96870;-60
2023/05/12 12:08:50;;;;;;;;;4.00;4.00;;;;;26.04;22.14;99026.09;5960474;29;96596;-60
2023/05/12 12:11:53;;;;;;;;;7.00;6.00;;;;;26.20;21.76;99028.06;5977897;29;96801;-60
2023/05/12 12:14:59;;;;;;;;;6.00;5.33;;;;;26.41;21.92;99036.63;5994841;29;96615;-59
2023/05/12 12:18:02;;;;;;;;;4.20;4.20;;;;;26.51;21.42;99022.50;5994785;29;96516;-59
2023/05/12 12:21:06;;;;;;;;;7.00;6.00;;;;;26.75;22.04;99019.25;5995972;29;96223;-59
2023/05/12 12:24:09;;;;;;;;;5.50;5.50;;;;;26.73;22.81;99016.81;5961384;29;96294;-60
2023/05/12 12:27:13;;;;;;;;;7.60;7.00;;;;;26.64;23.23;99029.81;5979002;29;96817;-59
2023/05/12 12:30:17;;;;;;;;;6.00;6.00;;;;;27.02;22.88;99023.69;5990206;29;96689;-65
2023/05/12 12:33:21;;;;;;;;;4.00;4.00;;;;;27.05;24.74;99018.31;5987232;29;96600;-64
2023/05/12 12:36:24;;;;;;;;;7.00;7.00;;;;;27.32;23.67;99017.13;5994826;29;97467;-64
2023/05/12 12:39:27;;;;;;;;;5.00;4.80;;;;;26.69;22.41;99028.84;5960344;29;97000;-65
2023/05/12 12:42:31;;;;;;;;;6.00;5.00;;;;;26.34;22.32;99041.78;5996088;29;96736;-64
2023/05/12 12:45:36;;;;;;;;;5.00;4.00;;;;;26.64;23.19;99024.28;5988897;29;96555;-64
2023/05/12 12:48:39;;;;;;;;;5.00;4.00;;;;;26.85;24.11;99023.66;5996260;29;96583;-64
2023/05/12 12:51:42;;;;;;;;;5.25;5.00;;;;;26.94;23.56;99024.50;5998134;29;97001;-64
2023/05/12 12:54:49;;;;;;;;;5.00;5.00;;;;;27.05;22.61;99020.28;5996583;29;96432;-64
2023/05/12 12:57:52;;;;;;;;;5.00;5.00;;;;;26.74;22.51;99023.16;5980533;29;96631;-64
2023/05/12 13:00:58;;;;;;;;;6.00;5.00;;;;;26.36;23.41;99027.66;5996556;29;97172;-64
2023/05/12 13:04:01;;;;;;;;;6.40;5.40;;;;;26.18;23.27;99022.06;5996434;29;96588;-64
2023/05/12 13:07:05;;;;;;;;;5.50;5.50;;;;;26.59;24.60;99013.38;5984241;29;96461;-64
2023/05/12 13:10:09;;;;;;;;;4.00;4.00;;;;;26.76;23.12;99009.84;5999008;29;96453;-64
2023/05/12 13:13:12;;;;;;;;;5.00;5.00;;;;;26.82;24.74;99013.25;5998970;29;96694;-64
2023/05/12 13:16:17;;;;;;;;;5.40;5.40;;;;;26.83;22.54;99012.91;5998197;29;97045;-64
2023/05/12 13:19:21;;;;;;;;;6.00;5.50;;;;;26.06;23.75;99010.00;5999100;29;96497;-64
2023/05/12 13:22:26;;;;;;;;;4.20;4.20;;;;;25.62;22.88;99017.28;5991793;29;96421;-65
2023/05/12 13:25:31;;;;;;;;;4.00;4.00;;;;;25.48;23.15;99027.56;5997168;29;96380;-65
2023/05/12 13:28:34;;;;;;;;;5.00;5.00;;;;;24.94;22.92;99028.66;5988219;29;97183;-64
2023/05/12 13:31:40;;;;;;;;;4.60;4.40;;;;;24.49;22.77;99017.53;5974688;29;96305;-64
2023/05/12 13:34:43;;;;;;;;;4.40;4.00;;;;;24.88;23.70;99011.41;5988052;29;96895;-64
2023/05/12 13:37:46;;;;;;;;;3.50;3.25;;;;;25.27;23.76;99004.38;5985647;29;96452;-64
2023/05/12 13:40:49;;;;;;;;;4.80;4.00;;;;;25.02;24.06;99006.66;5986929;29;96477;-64
2023/05/12 13:43:53;;;;;;;;;7.00;7.00;;;;;25.09;23.50;99000.72;5957970;29;97518;-64
2023/05/12 13:46:57;;;;;;;;;5.40;5.40;;;;;25.40;23.76;99007.09;5957361;29;98595;-65
2023/05/12 13:50:01;;;;;;;;;5.00;5.00;;;;;25.34;23.29;99008.34;5973188;29;96746;-63
2023/05/12 13:53:05;;;;;;;;;5.00;5.00;;;;;25.54;23.00;99014.47;5969486;29;96422;-64
2023/05/12 13:56:09;;;;;;;;;4.80;4.00;;;;;25.38;23.20;99008.53;5973968;29;96711;-64
2023/05/12 13:59:13;;;;;;;;;5.40;5.00;;;;;24.98;23.66;99007.59;5972816;29;96478;-65
2023/05/12 14:02:18;;;;;;;;;4.75;4.00;;;;;24.72;23.91;99007.38;5962699;29;97480;-64
2023/05/12 14:05:21;;;;;;;;;6.00;5.00;;;;;24.59;23.88;98999.94;5964807;29;96885;-64
2023/05/12 14:08:25;;;;;;;;;3.50;3.25;;;;;24.52;24.36;99003.16;5963264;29;96583;-64
2023/05/12 14:11:28;;;;;;;;;5.00;4.00;;;;;24.30;25.40;98992.06;5963349;29;96614;-64
2023/05/12 14:14:31;;;;;;;;;5.00;4.80;;;;;24.29;23.42;98986.88;5960043;29;97297;-64
2023/05/12 14:17:36;;;;;;;;;4.00;4.00;;;;;24.47;24.44;98992.25;5970524;29;96481;-64
2023/05/12 14:20:40;;;;;;;;;4.80;4.00;;;;;24.48;23.67;98998.56;5968070;29;96670;-64